METAR Data
IDs: Format: Raw Decoded Include TAF

Data at: 1344 UTC 14 Dec 2019

PAKW 141253Z AUTO 04004KT 10SM CLR 01/00 A3001 RMK SLP165 I1000 T00110000 TSNO VIA AUTODIAL
PAKW 141153Z AUTO 04006KT 10SM CLR 01/00 A3002 RMK SLP166 70026 T00110000 10022 20006 51003 TSNO VIA AUTODIAL
PAKW 141053Z AUTO 03004KT 10SM CLR 01/M01 A3002 RMK SLP166 T00061006 TSNO VIA AUTODIAL
PAKW 140953Z AUTO 04005KT 10SM CLR 02/00 A3001 RMK SLP165 T00170000 TSNO VIA AUTODIAL
PAKW 140853Z AUTO 04005KT 10SM CLR 02/01 A3001 RMK SLP163 T00170006 400500011 53006 TSNO VIA AUTODIAL
PAKW 140753Z AUTO 04003KT 10SM CLR 01/00 A3000 RMK SLP160 T00110000 TSNO VIA AUTODIAL
PAKW 140653Z AUTO 03003KT 10SM CLR 02/01 A3000 RMK SLP158 T00170006 TSNO VIA AUTODIAL
PAKW 140553Z AUTO 01003KT 10SM BKN042 02/01 A2999 RMK SLP157 60002 T00170006 10039 20011 53005 TSNO VIA AUTODIAL
PAKW 140253Z AUTO 03004KT 10SM CLR 02/01 A2997 RMK SLP151 60002 T00220011 53003 TSNO VIA AUTODIAL
PAKW 140053Z AUTO VRB03KT 10SM FEW023 BKN034 03/02 A2996 RMK RAE22 SLP146 P0002 T00330017 TSNO VIA AUTODIAL
PAKW 140045Z AUTO 02004KT 10SM SCT024 BKN033 03/02 A2997 RMK RAE22 P0002 T00330022 TSNO VIA AUTODIAL
PAKW 140017Z AUTO 00000KT 3SM -RA BR BKN019 BKN024 OVC031 04/03 A2997 RMK P0002 T00390028 TSNO VIA AUTODIAL
PAKW 140009Z AUTO 00000KT 1 3/4SM RA BR OVC022 04/03 A2997 RMK P0002 T00390028 TSNO VIA AUTODIAL
PAKW 140003Z AUTO 00000KT 4SM -RA BR OVC022 04/03 A2997 RMK P0000 T00390028 TSNO VIA AUTODIAL
PAKW 132353Z AUTO 05004KT 2 1/2SM RA BR OVC022 04/03 A2997 RMK SLP148 P0007 60024 T00390028 10050 20028 53006 TSNO VIA AUTODIAL
PAKW 132351Z AUTO 05004KT 2 1/2SM RA BR OVC022 04/03 A2994 RMK P0006 TSNO VIA AUTODIAL
PAKW 132318Z AUTO 04005KT 3SM -RA BR BKN016 OVC023 04/03 A2996 RMK P0004 T00390028 TSNO VIA AUTODIAL
PAKW 132311Z AUTO 03003KT 2 1/2SM -RA BR BKN016 OVC023 04/03 A2996 RMK P0004 T00390028 TSNO VIA AUTODIAL
PAKW 132301Z AUTO 34003KT 1 3/4SM RA BR FEW018 OVC023 04/03 A2996 RMK P0002 T00390028 TSNO VIA AUTODIAL
PAKW 132253Z AUTO 02003KT 2SM RA BR FEW010 OVC023 04/03 A2995 RMK SLP143 P0008 T00440028 TSNO VIA AUTODIAL
PAKW 132251Z AUTO 05005KT 2 1/2SM RA BR FEW010 OVC023 04/03 A2994 RMK PRESFR P0008 TSNO VIA AUTODIAL
PAKW 132205Z AUTO 05006KT 4SM -RA BR OVC023 04/03 A2996 RMK P0002 T00440028 TSNO VIA AUTODIAL
PAKW 132153Z AUTO 02003KT 2SM RA BR OVC023 04/03 A2996 RMK SLP145 P0004 T00440033 TSNO VIA AUTODIAL
PAKW 132151Z AUTO 03003KT 2SM RA BR OVC025 04/03 A2996 RMK P0004 TSNO VIA AUTODIAL
PAKW 132114Z AUTO 07004KT 8SM -RA OVC028 05/03 A2995 RMK P0000 T00500028 TSNO VIA AUTODIAL
PAKW 132053Z AUTO 17004KT 9SM -RA OVC032 05/03 A2995 RMK RAE22B33 SLP143 P0002 60005 T00500028 50008 TSNO VIA AUTODIAL
PAKW 132031Z AUTO 15007KT 130V190 10SM FEW025 SCT032 OVC042 05/03 A2993 RMK RAE22 P0001 T00500028 TSNO VIA AUTODIAL
PAKW 132012Z AUTO 11003KT 6SM -RA BR BKN027 OVC033 04/03 A2996 RMK P0001 T00440033 TSNO VIA AUTODIAL
PAKW 131953Z AUTO VRB06KT 4SM -RA BR SCT030 BKN037 OVC065 05/03 A2996 RMK RAB42 SLP145 P0002 T00500028 TSNO VIA AUTODIAL
PAKW 131853Z AUTO 02005KT 9SM FEW120 03/02 A2993 RMK RAB00E29 SLP136 P0001 T00330022 TSNO VIA AUTODIAL
PAKW 131453Z AUTO VRB03KT 9SM FEW043 FEW060 03/02 A2991 RMK SLP130 60000 T00330022 51010 TSNO VIA AUTODIAL
PAKW 131353Z AUTO VRB04KT 8SM OVC035 03/02 A2990 RMK RAB1257E08 SLP127 P0000 T00330022 TSNO VIA AUTODIAL
PAKW 131253Z AUTO 00000KT 6SM BR OVC031 03/02 A2990 RMK SLP125 T00330022 TSNO VIA AUTODIAL
PAKW 131251Z AUTO 35003KT 6SM BR OVC031 04/02 A2988 RMK TSNO VIA AUTODIAL
PAKW 131224Z AUTO 00000KT 9SM BKN029 OVC060 04/02 A2989 RMK T00390022 TSNO VIA AUTODIAL
PAKW 131153Z AUTO 02005KT 5SM BR BKN044 04/02 A2988 RMK RAB1054E28 SLP120 P0002 60003 70028 T00390022 10056 20028 51020 TSNO VIA AUTODIAL
PAKW 130953Z AUTO 05004KT 9SM FEW015 BKN041 OVC055 04/03 A2985 RMK SLP110 T00390028 TSNO VIA AUTODIAL
PAKW 130753Z AUTO VRB03KT 7SM BKN035 OVC060 03/02 A2981 RMK SLP094 T00330022 TSNO VIA AUTODIAL
PAKW 130700Z AUTO 19003KT 8SM OVC033 05/03 A2979 RMK T00500033 TSNO VIA AUTODIAL
PAKW 130653Z AUTO 00000KT 8SM OVC029 05/03 A2978 RMK SLP086 T00500033 TSNO VIA AUTODIAL
PAKW 130643Z AUTO 20003KT 9SM FEW024 BKN029 05/03 A2978 RMK T00500033 TSNO VIA AUTODIAL
PAKW 130624Z AUTO 00000KT 8SM SCT023 BKN035 OVC065 05/04 A2974 RMK T00500039 TSNO VIA AUTODIAL
PAKW 130615Z AUTO 00000KT 8SM BKN023 BKN041 OVC050 06/04 A2976 RMK T00560039 TSNO VIA AUTODIAL
PAKW 130603Z AUTO 00000KT 8SM SCT023 BKN042 OVC055 06/04 A2976 RMK T00560039 TSNO VIA AUTODIAL
PAKW 130453Z AUTO 17004KT 10SM BKN021 OVC031 06/04 A2972 RMK RAE31 SLP065 P0002 T00610039 TSNO VIA AUTODIAL
PAKW 130436Z AUTO 18004KT 10SM BKN029 OVC037 06/04 A2971 RMK RAE31 P0002 T00560039 TSNO VIA AUTODIAL
PAKW 130414Z AUTO 18006KT 8SM -RA SCT020 BKN032 OVC046 06/04 A2970 RMK P0001 T00560039 TSNO VIA AUTODIAL
PAKW 130353Z AUTO 13005KT 10SM -RA OVC023 06/04 A2969 RMK RAB21E31B39 SLP055 P0000 T00610044 TSNO VIA AUTODIAL
PAKW 130336Z AUTO 31004KT 9SM BKN025 OVC031 06/04 A2966 RMK RAB21E31 P0000 T00560044 TSNO VIA AUTODIAL
PAKW 130253Z AUTO 00000KT 10SM SCT028 BKN040 OVC047 06/04 A2964 RMK RAB18E36 SLP036 P0000 60005 T00560044 51020 TSNO VIA AUTODIAL
PAKW 130222Z AUTO 00000KT 4SM -RA BR FEW025 SCT029 BKN039 06/05 A2965 RMK RAB18 P0000 T00560050 TSNO VIA AUTODIAL
PAKW 130211Z AUTO 00000KT 8SM BKN029 BKN040 06/04 A2964 RMK T00560044 TSNO VIA AUTODIAL
PAKW 130153Z AUTO 14004KT 10SM FEW027 SCT032 BKN047 06/04 A2963 RMK RAB17E28 SLP035 P0001 T00560044 TSNO VIA AUTODIAL